createdAt,value
2023-04-21T00:00:09.275Z,8.73
2023-04-21T00:01:11.464Z,8.73
2023-04-21T00:02:14.092Z,8.73
2023-04-21T00:03:16.957Z,8.73
2023-04-21T00:04:20.443Z,8.71
2023-04-21T00:05:22.972Z,8.72
2023-04-21T00:06:27.337Z,8.73
2023-04-21T00:07:29.401Z,8.72
2023-04-21T00:08:31.803Z,8.74
2023-04-21T00:09:33.989Z,8.72
2023-04-21T00:10:36.258Z,8.73
2023-04-21T00:11:38.464Z,8.72
2023-04-21T00:12:40.975Z,8.74
2023-04-21T00:13:43.132Z,8.73
2023-04-21T00:14:45.275Z,8.73
2023-04-21T00:15:47.472Z,8.73
2023-04-21T00:16:49.999Z,8.74
2023-04-21T00:17:52.703Z,8.71
2023-04-21T00:18:55.236Z,8.71
2023-04-21T00:19:57.751Z,8.70
2023-04-21T00:21:00.520Z,8.69
2023-04-21T00:22:02.808Z,8.68
2023-04-21T00:23:05.447Z,8.69
2023-04-21T00:24:08.473Z,8.69
2023-04-21T00:25:10.788Z,8.68
2023-04-21T00:26:14.503Z,8.68
2023-04-21T00:27:18.125Z,8.68
2023-04-21T00:28:20.411Z,8.65
2023-04-21T00:29:23.063Z,8.65
2023-04-21T00:30:25.502Z,8.64
2023-04-21T00:31:28.867Z,8.62
2023-04-21T00:32:33.184Z,8.63
2023-04-21T00:33:35.930Z,8.62
2023-04-21T00:34:38.116Z,8.63
2023-04-21T00:35:40.866Z,8.61
2023-04-21T00:36:43.304Z,8.61
2023-04-21T00:37:47.089Z,8.57
2023-04-21T00:38:49.144Z,8.56
2023-04-21T00:39:51.086Z,8.57
2023-04-21T00:40:53.651Z,8.58
2023-04-21T00:41:56.112Z,8.56
2023-04-21T00:42:58.327Z,8.59
2023-04-21T00:45:14.889Z,8.66
2023-04-21T00:46:18.288Z,8.51
2023-04-21T00:47:20.534Z,8.53
2023-04-21T00:48:25.142Z,8.52
2023-04-21T00:49:27.756Z,8.53
2023-04-21T00:50:30.348Z,8.54
2023-04-21T00:51:35.707Z,8.53
2023-04-21T00:52:42.650Z,8.53
2023-04-21T00:53:45.938Z,8.53
2023-04-21T00:54:48.441Z,8.48
2023-04-21T00:55:50.993Z,8.50
2023-04-21T00:56:54.641Z,8.46
2023-04-21T00:57:57.553Z,8.47
2023-04-21T00:59:03.219Z,8.46
2023-04-21T01:00:08.022Z,8.48
2023-04-21T01:01:13.206Z,8.43
2023-04-21T01:02:16.753Z,8.44
2023-04-21T01:03:19.104Z,8.43
2023-04-21T01:04:21.471Z,8.42
2023-04-21T01:05:23.709Z,8.45
2023-04-21T01:06:30.234Z,8.44
2023-04-21T01:07:33.035Z,8.44
2023-04-21T01:08:36.315Z,8.40
2023-04-21T01:09:38.640Z,8.43
2023-04-21T01:10:41.949Z,8.43
2023-04-21T01:12:56.432Z,8.54
2023-04-21T01:14:00.551Z,8.38
2023-04-21T01:15:03.325Z,8.40
2023-04-21T01:16:07.102Z,8.39
2023-04-21T01:17:09.393Z,8.40
2023-04-21T01:18:12.118Z,8.38
2023-04-21T01:19:15.638Z,8.37
2023-04-21T01:20:17.989Z,8.38
2023-04-21T01:21:20.825Z,8.39
2023-04-21T01:22:23.058Z,8.40
2023-04-21T01:23:26.443Z,8.42
2023-04-21T01:25:55.509Z,8.50
2023-04-21T01:26:57.944Z,8.32
2023-04-21T01:28:01.225Z,8.31
2023-04-21T01:29:03.536Z,8.31
2023-04-21T01:30:09.856Z,8.34
2023-04-21T01:31:12.213Z,8.33
2023-04-21T01:33:28.972Z,8.48
2023-04-21T01:34:33.078Z,8.32
2023-04-21T01:35:35.237Z,8.34
2023-04-21T01:36:38.386Z,8.34
2023-04-21T01:37:40.525Z,8.35
2023-04-21T01:38:43.216Z,8.34
2023-04-21T01:39:48.777Z,8.35
2023-04-21T01:40:53.358Z,8.34
2023-04-21T01:41:56.999Z,8.34
2023-04-21T01:42:59.210Z,8.33
2023-04-21T01:44:01.446Z,8.32
2023-04-21T01:45:04.407Z,8.35
2023-04-21T01:46:07.339Z,8.34
2023-04-21T01:47:09.775Z,8.34
2023-04-21T01:48:12.384Z,8.34
2023-04-21T01:49:15.240Z,8.35
2023-04-21T01:50:18.773Z,8.34
2023-04-21T01:51:20.895Z,8.36
2023-04-21T01:52:23.065Z,8.35
2023-04-21T01:53:25.340Z,8.35
2023-04-21T01:54:28.019Z,8.36
2023-04-21T01:55:30.286Z,8.36
2023-04-21T01:56:33.493Z,8.36
2023-04-21T01:57:35.775Z,8.34
2023-04-21T01:58:37.814Z,8.35
2023-04-21T01:59:40.084Z,8.38
2023-04-21T02:00:42.321Z,8.37
2023-04-21T02:01:44.515Z,8.36
2023-04-21T02:02:46.892Z,8.36
2023-04-21T02:03:49.398Z,8.35
2023-04-21T02:04:52.241Z,8.34
2023-04-21T02:05:54.298Z,8.35
2023-04-21T02:06:56.548Z,8.34
2023-04-21T02:07:58.762Z,8.36
2023-04-21T02:09:01.372Z,8.35
2023-04-21T02:10:06.551Z,8.34
2023-04-21T02:11:08.823Z,8.32
2023-04-21T02:12:11.588Z,8.36
2023-04-21T02:13:15.692Z,8.36
2023-04-21T02:14:17.974Z,8.33
2023-04-21T02:15:20.226Z,8.33
2023-04-21T02:16:22.966Z,8.32
2023-04-21T02:17:25.747Z,8.30
2023-04-21T02:18:29.794Z,8.30
2023-04-21T02:19:32.069Z,8.30
2023-04-21T02:20:34.434Z,8.30
2023-04-21T02:21:36.481Z,8.30
2023-04-21T02:22:39.176Z,8.29
2023-04-21T02:23:41.555Z,8.26
2023-04-21T02:24:43.775Z,8.28
2023-04-21T02:25:47.500Z,8.28
2023-04-21T02:26:49.855Z,8.29
2023-04-21T02:27:52.027Z,8.27
2023-04-21T02:28:54.206Z,8.26
2023-04-21T02:29:56.252Z,8.27
2023-04-21T02:30:58.510Z,8.27
2023-04-21T02:32:10.764Z,8.28
2023-04-21T02:33:05.726Z,8.26
2023-04-21T02:34:07.920Z,8.25
2023-04-21T02:35:10.719Z,8.26
2023-04-21T02:36:13.604Z,8.26
2023-04-21T02:37:15.665Z,8.26
2023-04-21T02:38:17.817Z,8.23
2023-04-21T02:39:20.355Z,8.24
2023-04-21T02:40:23.325Z,8.23
2023-04-21T02:41:27.128Z,8.22
2023-04-21T02:42:29.180Z,8.22
2023-04-21T02:43:31.295Z,8.22
2023-04-21T02:44:33.276Z,8.23
2023-04-21T02:45:36.607Z,8.22
2023-04-21T02:46:42.968Z,8.22
2023-04-21T02:47:45.359Z,8.22
2023-04-21T02:48:47.469Z,8.19
2023-04-21T02:49:49.737Z,8.19
2023-04-21T02:50:53.207Z,8.15
2023-04-21T02:51:55.911Z,8.14
2023-04-21T02:52:58.390Z,8.12
2023-04-21T02:54:01.161Z,8.11
2023-04-21T02:55:03.768Z,8.12
2023-04-21T02:56:08.126Z,8.10
2023-04-21T02:57:10.344Z,8.08
2023-04-21T02:58:12.595Z,8.09
2023-04-21T02:59:14.649Z,8.09
2023-04-21T03:00:18.133Z,8.08
2023-04-21T03:01:20.402Z,8.07
2023-04-21T03:02:22.765Z,8.07
2023-04-21T03:03:27.361Z,8.10
2023-04-21T03:04:33.768Z,8.08
2023-04-21T03:05:38.607Z,8.10
2023-04-21T03:06:45.097Z,8.07
2023-04-21T03:07:48.685Z,8.07
2023-04-21T03:08:53.896Z,8.05
2023-04-21T03:09:57.219Z,8.05
2023-04-21T03:11:07.610Z,8.03
2023-04-21T03:12:11.074Z,8.03
2023-04-21T03:14:39.221Z,8.03
2023-04-21T03:15:46.157Z,8.05
2023-04-21T03:16:53.377Z,8.05
2023-04-21T03:17:59.623Z,8.06
2023-04-21T03:19:04.903Z,8.07
2023-04-21T03:20:10.348Z,8.08
2023-04-21T03:21:16.568Z,8.07
2023-04-21T03:22:22.788Z,8.06
2023-04-21T03:23:29.146Z,8.06
2023-04-21T03:24:31.499Z,8.06
2023-04-21T03:25:35.408Z,8.09
2023-04-21T03:26:52.791Z,8.12
2023-04-21T03:27:57.130Z,8.11
2023-04-21T03:29:03.440Z,8.13
2023-04-21T03:30:09.181Z,8.12
2023-04-21T03:31:16.877Z,8.13
2023-04-21T03:32:22.729Z,8.15
2023-04-21T03:33:30.063Z,8.14
2023-04-21T03:34:34.629Z,8.13
2023-04-21T03:35:40.335Z,8.12
2023-04-21T03:36:46.038Z,8.12
2023-04-21T03:37:51.257Z,8.11
2023-04-21T03:39:05.937Z,8.14
2023-04-21T03:40:18.083Z,8.13
2023-04-21T03:41:22.453Z,8.15
2023-04-21T03:42:30.561Z,8.14
2023-04-21T03:43:39.164Z,8.17
2023-04-21T03:47:22.887Z,8.31
2023-04-21T03:48:27.314Z,8.20
2023-04-21T03:49:29.531Z,8.20
2023-04-21T03:50:32.296Z,8.19
2023-04-21T03:51:34.431Z,8.22
2023-04-21T03:52:36.494Z,8.22
2023-04-21T03:53:38.642Z,8.23
2023-04-21T03:54:40.714Z,8.22
2023-04-21T03:55:42.880Z,8.22
2023-04-21T03:56:45.520Z,8.23
2023-04-21T03:57:48.493Z,8.24
2023-04-21T03:58:50.696Z,8.23
2023-04-21T03:59:52.799Z,8.25
2023-04-21T04:00:55.187Z,8.26
2023-04-21T04:01:57.332Z,8.27
2023-04-21T04:02:59.530Z,8.29
2023-04-21T04:04:03.311Z,8.29
2023-04-21T04:05:06.577Z,8.30
2023-04-21T04:06:09.314Z,8.30
2023-04-21T04:07:11.755Z,8.30
2023-04-21T04:08:14.023Z,8.27
2023-04-21T04:09:16.091Z,8.29
2023-04-21T04:10:19.659Z,8.28
2023-04-21T04:11:21.892Z,8.26
2023-04-21T04:12:24.148Z,8.25
2023-04-21T04:13:26.295Z,8.27
2023-04-21T04:14:29.153Z,8.30
2023-04-21T04:15:31.216Z,8.29
2023-04-21T04:16:34.924Z,8.30
2023-04-21T04:17:37.341Z,8.30
2023-04-21T04:18:39.568Z,8.30
2023-04-21T04:19:42.286Z,8.28
2023-04-21T04:20:44.553Z,8.29
2023-04-21T04:21:49.083Z,8.29
2023-04-21T04:22:51.500Z,8.28
2023-04-21T04:23:53.728Z,8.27
2023-04-21T04:24:56.425Z,8.25
2023-04-21T04:25:58.581Z,8.24
2023-04-21T04:27:01.252Z,8.26
2023-04-21T04:28:03.628Z,8.26
2023-04-21T04:29:06.666Z,8.25
2023-04-21T04:30:11.105Z,8.24
2023-04-21T04:31:13.434Z,8.21
2023-04-21T04:32:15.978Z,8.19
2023-04-21T04:33:18.154Z,8.20
2023-04-21T04:34:20.417Z,8.23
2023-04-21T04:35:22.589Z,8.23
2023-04-21T04:36:24.854Z,8.26
2023-04-21T04:37:27.033Z,8.27
2023-04-21T04:38:29.573Z,8.28
2023-04-21T04:39:31.943Z,8.30
2023-04-21T04:40:34.325Z,8.33
2023-04-21T04:41:36.594Z,8.33
2023-04-21T04:42:38.767Z,8.34
2023-04-21T04:43:40.925Z,8.36
2023-04-21T04:44:42.854Z,8.39
2023-04-21T04:45:44.978Z,8.41
2023-04-21T04:46:47.262Z,8.43
2023-04-21T04:47:49.968Z,8.44
2023-04-21T04:48:52.906Z,8.46
2023-04-21T04:49:55.134Z,8.49
2023-04-21T04:50:57.404Z,8.49
2023-04-21T04:51:59.865Z,8.53
2023-04-21T04:53:02.058Z,8.57
2023-04-21T04:54:04.143Z,8.58
2023-04-21T04:55:08.118Z,8.62
2023-04-21T04:56:10.511Z,8.63
2023-04-21T04:57:12.700Z,8.65
2023-04-21T04:58:15.270Z,8.66
2023-04-21T04:59:17.406Z,8.70
2023-04-21T05:00:19.870Z,8.72
2023-04-21T05:01:22.407Z,8.71
2023-04-21T05:02:24.809Z,8.73
2023-04-21T05:03:27.204Z,8.72
2023-04-21T05:04:29.892Z,8.73
2023-04-21T05:05:32.178Z,8.73
2023-04-21T05:06:34.571Z,8.73
2023-04-21T05:07:37.693Z,8.75
2023-04-21T05:08:40.048Z,8.72
2023-04-21T05:09:42.101Z,8.74
2023-04-21T05:10:44.439Z,8.73
2023-04-21T05:11:48.114Z,8.73
2023-04-21T05:12:50.367Z,8.74
2023-04-21T05:13:52.565Z,8.74
2023-04-21T05:14:55.356Z,8.73
2023-04-21T05:15:58.392Z,8.73
2023-04-21T05:17:01.335Z,8.73
2023-04-21T05:18:03.729Z,8.76
2023-04-21T05:19:05.942Z,8.74
2023-04-21T05:20:10.799Z,8.76
2023-04-21T05:21:13.173Z,8.73
2023-04-21T05:22:16.166Z,8.74
2023-04-21T05:23:18.379Z,8.74
2023-04-21T05:24:21.129Z,8.74
2023-04-21T05:25:23.427Z,8.74
2023-04-21T05:26:26.584Z,8.75
2023-04-21T05:27:28.808Z,8.76
2023-04-21T05:28:32.019Z,8.78
2023-04-21T05:29:34.818Z,8.78
2023-04-21T05:30:37.691Z,8.80
2023-04-21T05:31:39.920Z,8.81
2023-04-21T05:32:42.448Z,8.83
2023-04-21T05:33:45.296Z,8.85
2023-04-21T05:34:47.537Z,8.86
2023-04-21T05:35:49.457Z,8.89
2023-04-21T05:36:52.082Z,8.92
2023-04-21T05:37:54.125Z,8.94
2023-04-21T05:38:56.214Z,8.98
2023-04-21T05:39:58.273Z,8.98
2023-04-21T05:41:01.614Z,9.01
2023-04-21T05:42:04.049Z,9.01
2023-04-21T05:43:06.169Z,9.04
2023-04-21T05:44:08.316Z,9.07
2023-04-21T05:45:11.065Z,9.08
2023-04-21T05:46:13.313Z,9.10
2023-04-21T05:47:15.571Z,9.12
2023-04-21T05:48:18.270Z,9.13
2023-04-21T05:49:20.509Z,9.15
2023-04-21T05:50:23.990Z,9.15
2023-04-21T05:51:26.524Z,9.18
2023-04-21T05:52:29.134Z,9.18
2023-04-21T05:53:31.192Z,9.19
2023-04-21T05:54:33.755Z,9.20
2023-04-21T05:55:36.860Z,9.22
2023-04-21T05:56:39.261Z,9.23
2023-04-21T05:57:41.779Z,9.25
2023-04-21T05:58:44.639Z,9.26
2023-04-21T05:59:46.790Z,9.27
2023-04-21T06:00:49.548Z,9.27
2023-04-21T06:01:51.720Z,9.27
2023-04-21T06:02:54.730Z,9.28
2023-04-21T06:03:57.044Z,9.28
2023-04-21T06:05:00.015Z,9.27
2023-04-21T06:06:04.275Z,9.29
2023-04-21T06:07:07.343Z,9.30
2023-04-21T06:08:09.551Z,9.31
2023-04-21T06:09:12.041Z,9.32
2023-04-21T06:10:14.752Z,9.32
2023-04-21T06:11:16.997Z,9.32
2023-04-21T06:12:19.037Z,9.34
2023-04-21T06:13:21.501Z,9.34
2023-04-21T06:14:24.054Z,9.36
2023-04-21T06:15:26.105Z,9.37
2023-04-21T06:16:28.592Z,9.39
2023-04-21T06:17:30.680Z,9.40
2023-04-21T06:18:32.668Z,9.41
2023-04-21T06:19:38.450Z,9.44
2023-04-21T06:20:40.639Z,9.46
2023-04-21T06:21:42.825Z,9.47
2023-04-21T06:22:44.997Z,9.49
2023-04-21T06:23:49.300Z,9.51
2023-04-21T06:24:51.630Z,9.54
2023-04-21T06:26:04.608Z,9.57
2023-04-21T06:27:11.346Z,9.58
2023-04-21T06:28:13.542Z,9.62
2023-04-21T06:29:15.603Z,9.65
2023-04-21T06:30:19.537Z,9.68
2023-04-21T06:31:22.286Z,9.70
2023-04-21T06:32:24.591Z,9.72
2023-04-21T06:33:27.197Z,9.75
2023-04-21T06:34:29.769Z,9.77
2023-04-21T06:35:31.882Z,9.79
2023-04-21T06:36:34.206Z,9.81
2023-04-21T06:37:36.429Z,9.82
2023-04-21T06:38:38.685Z,9.85
2023-04-21T06:39:40.827Z,9.87
2023-04-21T06:40:44.124Z,9.90
2023-04-21T06:41:47.188Z,9.91
2023-04-21T06:42:49.353Z,9.95
2023-04-21T06:43:52.317Z,9.97
2023-04-21T06:45:05.176Z,9.99
2023-04-21T06:46:12.941Z,10.00
2023-04-21T06:47:18.150Z,10.04
2023-04-21T06:48:21.985Z,10.06
2023-04-21T06:49:26.872Z,10.08
2023-04-21T06:50:31.886Z,10.11
2023-04-21T06:51:38.210Z,10.13
2023-04-21T06:52:47.471Z,10.15
2023-04-21T06:53:50.348Z,10.16
2023-04-21T06:54:56.985Z,10.19
2023-04-21T06:56:01.624Z,10.21
2023-04-21T06:57:06.911Z,10.23
2023-04-21T06:58:13.840Z,10.24
2023-04-21T06:59:21.110Z,10.26
2023-04-21T07:00:26.863Z,10.28
2023-04-21T07:01:41.977Z,10.31
2023-04-21T07:02:47.430Z,10.33
2023-04-21T07:03:54.693Z,10.36
2023-04-21T07:05:00.861Z,10.37
2023-04-21T07:06:06.715Z,10.39
2023-04-21T07:07:10.495Z,10.42
2023-04-21T07:08:16.129Z,10.43
2023-04-21T07:09:21.832Z,10.45
2023-04-21T07:10:28.724Z,10.47
2023-04-21T07:11:33.819Z,10.50
2023-04-21T07:12:39.213Z,10.51
2023-04-21T07:13:44.613Z,10.54
2023-04-21T07:15:04.272Z,10.56
2023-04-21T07:16:09.948Z,10.57
2023-04-21T07:17:13.733Z,10.60
2023-04-21T07:18:18.984Z,10.61
2023-04-21T07:19:22.773Z,10.64
2023-04-21T07:20:27.580Z,10.67
2023-04-21T07:21:30.624Z,10.71
2023-04-21T07:22:37.989Z,10.72
2023-04-21T07:23:50.303Z,10.76
2023-04-21T07:24:53.727Z,10.79
2023-04-21T07:26:01.475Z,10.85
2023-04-21T07:27:05.023Z,10.89
2023-04-21T07:28:08.998Z,10.92
2023-04-21T07:29:15.582Z,10.94
2023-04-21T07:30:20.599Z,10.97
2023-04-21T07:31:26.099Z,10.99
2023-04-21T07:32:32.239Z,11.01
2023-04-21T07:33:39.197Z,11.02
2023-04-21T07:34:41.816Z,11.04
2023-04-21T07:35:48.136Z,11.06
2023-04-21T07:36:55.832Z,11.07
2023-04-21T07:38:03.799Z,11.11
2023-04-21T07:39:07.165Z,11.14
2023-04-21T07:40:11.609Z,11.18
2023-04-21T07:41:22.374Z,11.22
2023-04-21T07:42:26.916Z,11.25
2023-04-21T07:44:54.079Z,11.31
2023-04-21T07:45:58.879Z,11.33
2023-04-21T07:47:02.068Z,11.32
2023-04-21T07:48:06.903Z,11.33
2023-04-21T07:49:11.274Z,11.34
2023-04-21T07:50:20.205Z,11.35
2023-04-21T07:51:26.139Z,11.34
2023-04-21T07:52:31.463Z,11.34
2023-04-21T07:53:34.806Z,11.35
2023-04-21T07:54:41.215Z,11.36
2023-04-21T07:56:00.139Z,11.36
2023-04-21T07:57:06.071Z,11.38
2023-04-21T07:58:20.345Z,11.38
2023-04-21T07:59:35.828Z,11.39
2023-04-21T08:00:42.439Z,11.39
2023-04-21T08:01:45.696Z,11.40
2023-04-21T08:02:50.987Z,11.40
2023-04-21T08:03:57.422Z,11.41
2023-04-21T08:04:59.896Z,11.40
2023-04-21T08:06:02.650Z,11.39
2023-04-21T08:07:06.099Z,11.39
2023-04-21T08:08:08.611Z,11.38
2023-04-21T08:09:12.998Z,11.38
2023-04-21T08:10:16.130Z,11.37
2023-04-21T08:11:18.308Z,11.39
2023-04-21T08:12:20.334Z,11.40
2023-04-21T08:13:22.856Z,11.41
2023-04-21T08:14:25.042Z,11.42
2023-04-21T08:15:27.319Z,11.44
2023-04-21T08:16:29.619Z,11.45
2023-04-21T08:17:31.766Z,11.45
2023-04-21T08:18:33.999Z,11.47
2023-04-21T08:19:36.163Z,11.48
2023-04-21T08:20:38.425Z,11.50
2023-04-21T08:21:40.648Z,11.52
2023-04-21T08:22:43.019Z,11.55
2023-04-21T08:23:45.301Z,11.56
2023-04-21T08:24:47.946Z,11.57
2023-04-21T08:25:50.199Z,11.57
2023-04-21T08:26:52.766Z,11.56
2023-04-21T08:27:55.057Z,11.53
2023-04-21T08:28:57.347Z,11.52
2023-04-21T08:29:59.578Z,11.52
2023-04-21T08:31:01.776Z,11.52
2023-04-21T08:32:04.468Z,11.51
2023-04-21T08:33:07.402Z,11.51
2023-04-21T08:34:09.773Z,11.51
2023-04-21T08:35:12.000Z,11.50
2023-04-21T08:37:18.672Z,11.51
2023-04-21T08:38:20.859Z,11.52
2023-04-21T08:39:23.001Z,11.53
2023-04-21T08:41:41.570Z,11.67
2023-04-21T08:42:44.570Z,11.59
2023-04-21T08:43:46.683Z,11.62
2023-04-21T08:44:48.921Z,11.64
2023-04-21T08:45:52.687Z,11.66
2023-04-21T08:46:58.619Z,11.68
2023-04-21T08:48:02.073Z,11.68
2023-04-21T08:49:04.816Z,11.68
2023-04-21T08:50:10.934Z,11.68
2023-04-21T08:51:16.706Z,11.67
2023-04-21T08:52:18.902Z,11.66
2023-04-21T08:53:21.851Z,11.66
2023-04-21T08:54:24.127Z,11.67
2023-04-21T08:55:28.878Z,11.69
2023-04-21T08:56:31.388Z,11.68
2023-04-21T08:57:34.237Z,11.69
2023-04-21T08:58:37.462Z,11.68
2023-04-21T08:59:40.221Z,11.69
2023-04-21T09:00:43.578Z,11.70
2023-04-21T09:02:16.529Z,11.73
2023-04-21T09:03:26.348Z,11.73
2023-04-21T09:04:30.089Z,11.74
2023-04-21T09:05:36.422Z,11.73
2023-04-21T09:06:40.602Z,11.74
2023-04-21T09:07:42.855Z,11.74
2023-04-21T09:08:53.842Z,11.75
2023-04-21T09:09:57.672Z,11.74
2023-04-21T09:11:01.177Z,11.72
2023-04-21T09:12:04.007Z,11.72
2023-04-21T09:13:07.333Z,11.72
2023-04-21T09:14:11.275Z,11.72
2023-04-21T09:15:13.883Z,11.70
2023-04-21T09:16:18.862Z,11.69
2023-04-21T09:17:29.779Z,11.67
2023-04-21T09:18:32.039Z,11.67
2023-04-21T09:19:34.297Z,11.68
2023-04-21T09:20:36.807Z,11.67
2023-04-21T09:21:42.615Z,11.69
2023-04-21T09:22:45.128Z,11.70
2023-04-21T09:24:58.781Z,11.83
2023-04-21T09:26:03.920Z,11.73
2023-04-21T09:27:06.560Z,11.76
2023-04-21T09:28:09.912Z,11.76
2023-04-21T09:29:12.606Z,11.77
2023-04-21T09:31:32.799Z,11.90
2023-04-21T09:32:39.887Z,11.77
2023-04-21T09:33:57.584Z,11.77
2023-04-21T09:34:51.116Z,11.77
2023-04-21T09:35:53.754Z,11.74
2023-04-21T09:38:13.571Z,11.84
2023-04-21T09:40:20.160Z,11.70
2023-04-21T09:41:22.683Z,11.71
2023-04-21T09:42:32.653Z,11.68
2023-04-21T09:43:35.732Z,11.66
2023-04-21T09:44:50.537Z,11.65
2023-04-21T09:45:42.538Z,11.62
2023-04-21T09:46:48.237Z,11.59
2023-04-21T09:47:52.374Z,11.56
2023-04-21T09:48:55.527Z,11.53
2023-04-21T09:49:57.639Z,11.49
2023-04-21T09:51:27.153Z,11.47
2023-04-21T09:52:18.661Z,11.45
2023-04-21T09:53:15.887Z,11.42
2023-04-21T09:55:28.767Z,11.40
2023-04-21T09:56:33.380Z,11.37
2023-04-21T09:58:50.127Z,11.43
2023-04-21T10:00:01.074Z,11.29
2023-04-21T10:01:04.540Z,11.27
2023-04-21T10:02:07.888Z,11.25
2023-04-21T10:03:12.441Z,11.23
2023-04-21T10:04:15.914Z,11.20
2023-04-21T10:05:18.920Z,11.18
2023-04-21T10:06:22.395Z,11.15
2023-04-21T10:07:24.963Z,11.13
2023-04-21T10:08:27.226Z,11.12
2023-04-21T10:11:12.334Z,11.24
2023-04-21T10:12:15.148Z,11.12
2023-04-21T10:13:17.432Z,11.13
2023-04-21T10:14:20.049Z,11.14
2023-04-21T10:15:34.439Z,11.14
2023-04-21T10:16:37.437Z,11.18
2023-04-21T10:17:39.812Z,11.16
2023-04-21T10:18:45.108Z,11.18
2023-04-21T10:19:50.397Z,11.19
2023-04-21T10:20:58.165Z,11.19
2023-04-21T10:22:00.890Z,11.21
2023-04-21T10:23:03.223Z,11.24
2023-04-21T10:24:06.547Z,11.26
2023-04-21T10:25:09.074Z,11.30
2023-04-21T10:26:26.602Z,11.32
2023-04-21T10:27:41.062Z,11.34
2023-04-21T10:29:01.862Z,11.39
2023-04-21T10:30:20.482Z,11.43
2023-04-21T10:31:27.343Z,11.47
2023-04-21T10:34:08.340Z,11.65
2023-04-21T10:35:17.684Z,11.58
2023-04-21T10:36:24.046Z,11.62
2023-04-21T10:37:28.024Z,11.64
2023-04-21T10:38:37.221Z,11.65
2023-04-21T10:39:54.735Z,11.67
2023-04-21T10:41:17.022Z,11.70
2023-04-21T10:42:25.214Z,11.71
2023-04-21T10:43:45.291Z,11.73
2023-04-21T10:45:00.666Z,11.74
2023-04-21T10:47:27.708Z,11.91
2023-04-21T10:48:34.725Z,11.79
2023-04-21T10:49:40.499Z,11.80
2023-04-21T10:50:42.881Z,11.80
2023-04-21T10:52:02.744Z,11.82
2023-04-21T10:53:10.620Z,11.83
2023-04-21T10:54:13.941Z,11.86
2023-04-21T10:55:16.571Z,11.87
2023-04-21T10:56:21.594Z,11.90
2023-04-21T10:57:24.372Z,11.92
2023-04-21T10:58:26.951Z,11.94
2023-04-21T10:59:29.110Z,11.95
2023-04-21T11:00:32.093Z,11.96
2023-04-21T11:01:34.311Z,11.98
2023-04-21T11:02:39.773Z,11.99
2023-04-21T11:03:41.385Z,12.03
2023-04-21T11:04:45.237Z,12.04
2023-04-21T11:05:48.166Z,12.08
2023-04-21T11:07:17.367Z,12.11
2023-04-21T11:08:19.459Z,12.14
2023-04-21T11:09:21.962Z,12.19
2023-04-21T11:10:24.780Z,12.22
2023-04-21T11:11:27.034Z,12.26
2023-04-21T11:12:31.723Z,12.30
2023-04-21T11:13:33.947Z,12.33
2023-04-21T11:14:38.581Z,12.36
2023-04-21T11:15:40.680Z,12.42
2023-04-21T11:16:42.964Z,12.46
2023-04-21T11:17:45.355Z,12.49
2023-04-21T11:18:47.831Z,12.52
2023-04-21T11:19:55.607Z,12.57
2023-04-21T11:21:07.081Z,12.58
2023-04-21T11:22:09.793Z,12.61
2023-04-21T11:23:17.332Z,12.62
2023-04-21T11:24:23.073Z,12.62
2023-04-21T11:25:27.210Z,12.62
2023-04-21T11:26:35.218Z,12.63
2023-04-21T11:27:37.941Z,12.64
2023-04-21T11:28:41.572Z,12.65
2023-04-21T11:29:46.561Z,12.66
2023-04-21T11:30:48.896Z,12.67
2023-04-21T11:31:51.033Z,12.70
2023-04-21T11:32:54.812Z,12.71
2023-04-21T11:33:59.892Z,12.72
2023-04-21T11:35:02.694Z,12.71
2023-04-21T11:36:06.165Z,12.71
2023-04-21T11:37:09.442Z,12.71
2023-04-21T11:38:12.116Z,12.70
2023-04-21T11:39:16.160Z,12.70
2023-04-21T11:40:19.064Z,12.70
2023-04-21T11:41:23.021Z,12.72
2023-04-21T11:42:25.331Z,12.73
2023-04-21T11:43:28.608Z,12.74
2023-04-21T11:44:40.117Z,12.77
2023-04-21T11:45:42.782Z,12.77
2023-04-21T11:46:46.331Z,12.76
2023-04-21T11:47:49.474Z,12.77
2023-04-21T11:49:07.180Z,12.75
2023-04-21T11:50:10.381Z,12.77
2023-04-21T11:51:22.010Z,12.78
2023-04-21T11:52:28.780Z,12.78
2023-04-21T11:53:31.370Z,12.79
2023-04-21T11:54:33.749Z,12.80
2023-04-21T11:55:35.984Z,12.80
2023-04-21T11:57:51.894Z,12.93
2023-04-21T11:58:54.669Z,12.81
2023-04-21T12:00:02.465Z,12.82
2023-04-21T12:01:09.608Z,12.82
2023-04-21T12:02:15.597Z,12.82
2023-04-21T12:03:19.631Z,12.82
2023-04-21T12:04:24.459Z,12.82
2023-04-21T12:06:47.367Z,12.91
2023-04-21T12:07:50.548Z,12.79
2023-04-21T12:11:30.993Z,12.89
2023-04-21T12:12:37.223Z,12.79
2023-04-21T12:13:39.830Z,12.82
2023-04-21T12:14:44.392Z,12.85
2023-04-21T12:15:49.129Z,12.89
2023-04-21T12:16:54.627Z,12.92
2023-04-21T12:17:56.914Z,12.95
2023-04-21T12:18:59.056Z,12.99
2023-04-21T12:20:06.739Z,13.00
2023-04-21T12:21:09.507Z,13.03
2023-04-21T12:22:17.018Z,13.06
2023-04-21T12:23:19.244Z,13.08
2023-04-21T12:24:21.423Z,13.12
2023-04-21T12:25:23.630Z,13.13
2023-04-21T12:26:26.341Z,13.17
2023-04-21T12:27:28.597Z,13.21
2023-04-21T12:28:30.868Z,13.22
2023-04-21T12:29:33.433Z,13.24
2023-04-21T12:30:38.648Z,13.28
2023-04-21T12:31:39.817Z,13.30
2023-04-21T12:32:42.034Z,13.33
2023-04-21T12:33:44.359Z,13.36
2023-04-21T12:34:47.112Z,13.40
2023-04-21T12:35:49.295Z,13.43
2023-04-21T12:36:51.977Z,13.44
2023-04-21T12:37:54.477Z,13.48
2023-04-21T12:38:57.030Z,13.50
2023-04-21T12:39:59.184Z,13.51
2023-04-21T12:41:01.480Z,13.54
2023-04-21T12:42:04.028Z,13.55
2023-04-21T12:43:06.082Z,13.57
2023-04-21T12:44:08.231Z,13.58
2023-04-21T12:45:11.285Z,13.59
2023-04-21T12:46:13.944Z,13.61
2023-04-21T12:47:16.165Z,13.62
2023-04-21T12:48:18.651Z,13.65
2023-04-21T12:49:21.047Z,13.66
2023-04-21T12:50:23.407Z,13.69
2023-04-21T12:51:25.476Z,13.71
2023-04-21T12:52:28.318Z,13.73
2023-04-21T12:53:31.549Z,13.73
2023-04-21T12:54:33.822Z,13.73
2023-04-21T12:55:36.483Z,13.73
2023-04-21T12:56:42.541Z,13.71
2023-04-21T12:57:44.822Z,13.71
2023-04-21T12:58:46.978Z,13.71
2023-04-21T12:59:49.584Z,13.72
2023-04-21T13:00:51.898Z,13.72
2023-04-21T13:01:54.582Z,13.71
2023-04-21T13:02:56.868Z,13.72
2023-04-21T13:03:59.586Z,13.72
2023-04-21T13:05:01.968Z,13.71
2023-04-21T13:06:04.395Z,13.73
2023-04-21T13:07:07.071Z,13.72
2023-04-21T13:08:09.616Z,13.73
2023-04-21T13:09:12.306Z,13.76
2023-04-21T13:10:14.860Z,13.77
2023-04-21T13:11:17.016Z,13.79
2023-04-21T13:12:19.127Z,13.79
2023-04-21T13:13:21.657Z,13.79
2023-04-21T13:14:25.176Z,13.79
2023-04-21T13:15:27.375Z,13.80
2023-04-21T13:16:30.487Z,13.79
2023-04-21T13:17:32.813Z,13.80
2023-04-21T13:18:35.110Z,13.78
2023-04-21T13:19:37.338Z,13.82
2023-04-21T13:20:39.801Z,13.82
2023-04-21T13:21:43.029Z,13.81
2023-04-21T13:22:45.269Z,13.82
2023-04-21T13:23:50.796Z,13.83
2023-04-21T13:24:54.009Z,13.83
2023-04-21T13:25:56.119Z,13.83
2023-04-21T13:26:59.545Z,13.85
2023-04-21T13:28:01.767Z,13.85
2023-04-21T13:29:04.020Z,13.86
2023-04-21T13:30:09.898Z,13.87
2023-04-21T13:31:12.134Z,13.88
2023-04-21T13:32:14.896Z,13.89
2023-04-21T13:33:17.219Z,13.90
2023-04-21T13:34:19.336Z,13.90
2023-04-21T13:35:22.719Z,13.91
2023-04-21T13:36:25.550Z,13.90
2023-04-21T13:37:27.745Z,13.91
2023-04-21T13:38:30.836Z,13.91
2023-04-21T13:39:33.210Z,13.92
2023-04-21T13:40:36.121Z,13.93
2023-04-21T13:41:38.473Z,13.94
2023-04-21T13:42:40.707Z,13.95
2023-04-21T13:43:44.131Z,13.95
2023-04-21T13:44:46.760Z,13.95
2023-04-21T13:45:49.544Z,13.95
2023-04-21T13:46:52.590Z,13.93
2023-04-21T13:47:55.156Z,13.93
2023-04-21T13:48:57.138Z,13.94
2023-04-21T13:50:00.398Z,13.94
2023-04-21T13:51:03.168Z,13.94
2023-04-21T13:52:06.244Z,13.94
2023-04-21T13:53:08.522Z,13.95
2023-04-21T13:54:10.581Z,13.95
2023-04-21T13:55:13.870Z,13.95
2023-04-21T13:56:16.592Z,13.97
2023-04-21T13:57:19.749Z,13.98
2023-04-21T13:58:22.809Z,13.99
2023-04-21T13:59:25.159Z,14.00
2023-04-21T14:00:27.902Z,14.01
2023-04-21T14:01:29.882Z,14.02
2023-04-21T14:02:32.524Z,14.03
2023-04-21T14:03:35.454Z,14.04
2023-04-21T14:04:38.181Z,14.03
2023-04-21T14:05:40.598Z,14.04
2023-04-21T14:06:42.951Z,14.04
2023-04-21T14:07:45.181Z,14.04
2023-04-21T14:08:47.325Z,14.04
2023-04-21T14:09:50.261Z,14.06
2023-04-21T14:10:52.571Z,14.06
2023-04-21T14:11:55.241Z,14.06
2023-04-21T14:12:57.358Z,14.06
2023-04-21T14:14:08.938Z,14.08
2023-04-21T14:15:06.084Z,14.09
2023-04-21T14:16:10.177Z,14.11
2023-04-21T14:17:12.739Z,14.11
2023-04-21T14:18:15.040Z,14.12
2023-04-21T14:19:17.318Z,14.13
2023-04-21T14:20:20.560Z,14.13
2023-04-21T14:21:23.194Z,14.11
2023-04-21T14:22:25.235Z,14.12
2023-04-21T14:23:27.722Z,14.11
2023-04-21T14:24:29.778Z,14.10